createdAt,value
2023-01-29T00:19:15.606Z,-2.31
2023-01-29T00:49:15.614Z,-2.56
2023-01-29T01:19:15.634Z,-2.75
2023-01-29T01:49:15.630Z,-2.5
2023-01-29T02:19:15.621Z,-2.75
2023-01-29T02:49:15.606Z,-2.44
2023-01-29T03:19:15.608Z,-2.38
2023-01-29T03:49:15.620Z,-2.13
2023-01-29T04:19:15.622Z,-2.25
2023-01-29T04:49:15.628Z,-2.5
2023-01-29T05:19:15.654Z,-2.25
2023-01-29T05:49:15.656Z,-2.25
2023-01-29T06:19:15.651Z,-2.31
2023-01-29T06:49:15.659Z,-2.06
2023-01-29T07:19:15.667Z,-2.38
2023-01-29T07:49:15.671Z,-2.06
2023-01-29T08:19:15.667Z,-2.13
2023-01-29T08:49:15.664Z,-1.13
2023-01-29T09:19:15.667Z,-1.31
2023-01-29T09:49:15.666Z,-1.25
2023-01-29T10:19:15.688Z,-1.38
2023-01-29T10:49:15.679Z,-0.94
2023-01-29T11:19:15.708Z,-0.56
2023-01-29T11:49:20.886Z,-0.69
2023-01-29T12:19:15.725Z,-0.56
2023-01-29T12:49:15.737Z,0.06
2023-01-29T13:19:15.719Z,-0.38
2023-01-29T13:49:15.732Z,0
2023-01-29T14:19:15.741Z,0.25
2023-01-29T14:49:15.730Z,-0.25
2023-01-29T15:19:15.746Z,-0.38
2023-01-29T15:49:15.757Z,-0.81
2023-01-29T16:19:15.752Z,-1.25
2023-01-29T16:49:15.746Z,-1.63
2023-01-29T17:19:16.449Z,-1.69
2023-01-29T17:49:15.746Z,-1.94
2023-01-29T18:19:15.763Z,-2.13
2023-01-29T18:49:15.766Z,-2.5
2023-01-29T19:19:16.831Z,-2.81
2023-01-29T19:49:15.793Z,-3.38
2023-01-29T20:19:15.808Z,-3.5
2023-01-29T20:49:15.808Z,-3.75
2023-01-29T21:19:15.789Z,-3.88
2023-01-29T21:49:15.802Z,-3.94
2023-01-29T22:19:15.805Z,-4.56
2023-01-29T22:49:15.801Z,-4.44
2023-01-29T23:19:15.797Z,-4.63
2023-01-29T23:49:15.814Z,-4.63
